createdAt,value
2022-08-05T00:01:36.176Z,100.00
2022-08-05T00:04:16.969Z,100.00
2022-08-05T00:06:45.473Z,98.80
2022-08-05T00:09:19.427Z,100.00
2022-08-05T00:11:48.680Z,100.00
2022-08-05T00:14:27.587Z,100.00
2022-08-05T00:16:57.220Z,100.00
2022-08-05T00:19:33.445Z,100.00
2022-08-05T00:22:11.133Z,100.00
2022-08-05T00:24:42.479Z,96.77
2022-08-05T00:27:14.173Z,100.00
2022-08-05T00:29:44.896Z,100.00
2022-08-05T00:32:15.082Z,100.00
2022-08-05T00:35:03.928Z,100.00
2022-08-05T00:37:51.395Z,96.40
2022-08-05T00:40:27.550Z,98.93
2022-08-05T00:42:58.689Z,94.40
2022-08-05T00:45:38.065Z,97.65
2022-08-05T00:48:08.127Z,91.78
2022-08-05T00:50:37.093Z,88.87
2022-08-05T00:53:09.811Z,97.15
2022-08-05T00:55:53.930Z,100.00
2022-08-05T00:58:21.647Z,100.00
2022-08-05T01:00:56.323Z,100.00
2022-08-05T01:03:24.222Z,100.00
2022-08-05T01:05:58.879Z,100.00
2022-08-05T01:08:30.393Z,100.00
2022-08-05T01:11:22.268Z,100.00
2022-08-05T01:14:03.931Z,100.00
2022-08-05T01:16:50.050Z,100.00
2022-08-05T01:19:56.334Z,100.00
2022-08-05T01:22:36.684Z,100.00
2022-08-05T01:25:40.811Z,100.00
2022-08-05T01:28:24.281Z,100.00
2022-08-05T01:30:55.350Z,100.00
2022-08-05T01:33:35.473Z,100.00
2022-08-05T01:36:12.902Z,100.00
2022-08-05T01:38:48.464Z,100.00
2022-08-05T01:41:22.041Z,100.00
2022-08-05T01:43:52.469Z,100.00
2022-08-05T01:46:42.529Z,100.00
2022-08-05T01:49:23.182Z,100.00
2022-08-05T01:51:56.510Z,100.00
2022-08-05T01:54:30.552Z,100.00
2022-08-05T01:58:10.721Z,100.00
2022-08-05T01:59:50.287Z,100.00
2022-08-05T02:02:26.295Z,100.00
2022-08-05T02:04:59.479Z,100.00
2022-08-05T02:07:30.461Z,100.00
2022-08-05T02:09:58.746Z,100.00
2022-08-05T02:12:35.546Z,100.00
2022-08-05T02:15:12.356Z,100.00
2022-08-05T02:18:32.402Z,100.00
2022-08-05T02:20:41.484Z,100.00
2022-08-05T02:23:12.837Z,100.00
2022-08-05T02:25:49.104Z,100.00
2022-08-05T02:28:29.168Z,100.00
2022-08-05T02:31:07.534Z,100.00
2022-08-05T02:33:43.227Z,100.00
2022-08-05T02:36:15.566Z,100.00
2022-08-05T02:38:53.243Z,100.00
2022-08-05T02:41:23.355Z,100.00
2022-08-05T02:44:06.111Z,100.00
2022-08-05T02:46:53.114Z,100.00
2022-08-05T02:49:36.893Z,100.00
2022-08-05T02:52:11.621Z,100.00
2022-08-05T02:54:52.064Z,100.00
2022-08-05T02:58:09.708Z,100.00
2022-08-05T03:00:10.777Z,100.00
2022-08-05T03:02:42.788Z,100.00
2022-08-05T03:05:13.492Z,100.00
2022-08-05T03:08:01.603Z,100.00
2022-08-05T03:10:30.808Z,100.00
2022-08-05T03:15:28.368Z,100.00
2022-08-05T03:17:58.094Z,100.00
2022-08-05T03:20:27.316Z,100.00
2022-08-05T03:22:57.494Z,100.00
2022-08-05T03:26:03.569Z,100.00
2022-08-05T03:28:18.770Z,100.00
2022-08-05T03:30:49.609Z,100.00
2022-08-05T03:33:20.314Z,100.00
2022-08-05T03:35:50.025Z,100.00
2022-08-05T03:38:32.701Z,100.00
2022-08-05T03:41:08.417Z,100.00
2022-08-05T03:44:08.731Z,100.00
2022-08-05T03:46:29.827Z,100.00
2022-08-05T03:48:59.348Z,100.00
2022-08-05T03:52:38.779Z,100.00
2022-08-05T03:56:03.934Z,100.00
2022-08-05T03:57:41.129Z,100.00
2022-08-05T04:00:12.729Z,100.00
2022-08-05T04:02:58.172Z,100.00
2022-08-05T04:05:33.704Z,100.00
2022-08-05T04:08:03.759Z,100.00
2022-08-05T04:10:38.142Z,100.00
2022-08-05T04:13:07.474Z,100.00
2022-08-05T04:15:36.517Z,100.00
2022-08-05T04:18:06.729Z,100.00
2022-08-05T04:20:37.039Z,100.00
2022-08-05T04:23:05.175Z,100.00
2022-08-05T04:25:57.403Z,100.00
2022-08-05T04:28:21.142Z,100.00
2022-08-05T04:31:01.124Z,100.00
2022-08-05T04:33:54.923Z,100.00
2022-08-05T04:36:44.652Z,100.00
2022-08-05T04:39:07.483Z,100.00
2022-08-05T04:41:37.794Z,100.00
2022-08-05T04:44:09.605Z,100.00
2022-08-05T04:46:38.170Z,100.00
2022-08-05T04:49:05.998Z,100.00
2022-08-05T04:51:41.616Z,100.00
2022-08-05T04:54:10.441Z,100.00
2022-08-05T04:56:40.174Z,100.00
2022-08-05T04:59:22.160Z,100.00
2022-08-05T05:02:07.207Z,100.00
2022-08-05T05:04:38.245Z,100.00
2022-08-05T05:07:09.516Z,100.00
2022-08-05T05:09:38.004Z,100.00
2022-08-05T05:12:06.505Z,100.00
2022-08-05T05:14:36.227Z,100.00
2022-08-05T05:17:07.564Z,100.00
2022-08-05T05:19:44.372Z,100.00
2022-08-05T05:22:24.320Z,100.00
2022-08-05T05:24:57.653Z,100.00
2022-08-05T05:27:44.994Z,100.00
2022-08-05T05:30:29.624Z,100.00
2022-08-05T05:33:00.933Z,100.00
2022-08-05T05:35:31.638Z,100.00
2022-08-05T05:38:09.448Z,100.00
2022-08-05T05:40:49.588Z,100.00
2022-08-05T05:43:27.736Z,100.00
2022-08-05T05:46:13.770Z,100.00
2022-08-05T05:48:46.225Z,100.00
2022-08-05T05:51:20.630Z,100.00
2022-08-05T05:53:57.883Z,100.00
2022-08-05T05:56:32.507Z,100.00
2022-08-05T05:59:03.623Z,100.00
2022-08-05T06:01:37.980Z,100.00
2022-08-05T06:04:07.958Z,100.00
2022-08-05T06:06:35.881Z,100.00
2022-08-05T06:09:07.606Z,100.00
2022-08-05T06:11:35.529Z,100.00
2022-08-05T06:14:07.365Z,100.00
2022-08-05T06:16:37.164Z,100.00
2022-08-05T06:19:07.583Z,100.00
2022-08-05T06:21:38.724Z,100.00
2022-08-05T06:24:12.819Z,100.00
2022-08-05T06:26:51.714Z,100.00
2022-08-05T06:29:43.225Z,100.00
2022-08-05T06:32:21.005Z,100.00
2022-08-05T06:37:55.666Z,100.00
2022-08-05T06:40:13.724Z,100.00
2022-08-05T06:42:41.739Z,100.00
2022-08-05T06:45:10.268Z,100.00
2022-08-05T06:48:37.162Z,100.00
2022-08-05T06:50:37.156Z,100.00
2022-08-05T06:53:11.580Z,100.00
2022-08-05T06:55:41.923Z,100.00
2022-08-05T06:58:29.261Z,100.00
2022-08-05T07:00:59.413Z,100.00
2022-08-05T07:03:32.490Z,93.14
2022-08-05T07:06:05.649Z,90.73
2022-08-05T07:08:42.038Z,88.47
2022-08-05T07:11:15.301Z,78.46
2022-08-05T07:14:01.267Z,91.36
2022-08-05T07:18:02.206Z,90.07
2022-08-05T07:22:28.592Z,94.17
2022-08-05T07:24:59.082Z,97.58
2022-08-05T07:27:58.585Z,89.83
2022-08-05T07:30:24.592Z,92.21
2022-08-05T07:32:58.254Z,91.14
2022-08-05T07:36:02.888Z,86.14
2022-08-05T07:38:32.835Z,86.86
2022-08-05T07:41:16.841Z,81.84
2022-08-05T07:43:51.571Z,67.11
2022-08-05T07:46:25.093Z,67.61
2022-08-05T07:49:02.311Z,66.43
2022-08-05T07:51:37.295Z,65.84
2022-08-05T07:54:09.975Z,63.14
2022-08-05T07:57:02.875Z,65.03
2022-08-05T07:59:38.082Z,67.94
2022-08-05T08:02:15.306Z,74.10
2022-08-05T08:04:44.774Z,63.83
2022-08-05T08:07:13.195Z,59.44
2022-08-05T08:09:40.932Z,58.54
2022-08-05T08:12:30.578Z,56.33
2022-08-05T08:15:02.427Z,56.82
2022-08-05T08:17:30.963Z,58.87
2022-08-05T08:20:22.572Z,57.15
2022-08-05T08:22:52.078Z,57.63
2022-08-05T08:25:26.398Z,56.79
2022-08-05T08:28:03.827Z,55.57
2022-08-05T08:30:40.828Z,52.84
2022-08-05T08:33:16.027Z,51.71
2022-08-05T08:35:53.913Z,49.71
2022-08-05T08:38:36.044Z,47.10
2022-08-05T08:41:08.147Z,45.35
2022-08-05T08:45:20.172Z,45.71
2022-08-05T08:46:29.006Z,43.00
2022-08-05T08:49:06.429Z,43.09
2022-08-05T08:52:03.337Z,43.02
2022-08-05T08:54:36.514Z,42.83
2022-08-05T08:57:06.501Z,44.57
2022-08-05T08:59:41.936Z,45.15
2022-08-05T09:02:18.991Z,47.40
2022-08-05T09:05:16.283Z,45.47
2022-08-05T09:07:39.842Z,43.96
2022-08-05T09:10:27.685Z,44.77
2022-08-05T09:13:04.511Z,43.31
2022-08-05T09:15:36.985Z,41.08
2022-08-05T09:18:08.801Z,41.20
2022-08-05T09:20:38.283Z,41.47
2022-08-05T09:23:19.730Z,44.08
2022-08-05T09:25:59.920Z,44.33
2022-08-05T09:28:31.525Z,46.47
2022-08-05T09:31:18.258Z,45.99
2022-08-05T09:33:56.279Z,43.74
2022-08-05T09:36:27.796Z,45.76
2022-08-05T09:39:03.053Z,42.37
2022-08-05T09:41:32.777Z,41.99
2022-08-05T09:44:06.202Z,42.12
2022-08-05T09:46:35.512Z,43.44
2022-08-05T09:49:19.001Z,42.74
2022-08-05T09:51:49.533Z,43.83
2022-08-05T09:54:21.390Z,40.44
2022-08-05T09:57:01.283Z,41.20
2022-08-05T09:59:35.146Z,40.34
2022-08-05T10:02:05.909Z,41.15
2022-08-05T10:04:40.950Z,41.91
2022-08-05T10:07:20.281Z,41.89
2022-08-05T10:10:14.379Z,43.38
2022-08-05T10:12:49.760Z,45.92
2022-08-05T10:15:25.829Z,45.77
2022-08-05T10:18:07.256Z,40.82
2022-08-05T10:20:40.056Z,43.06
2022-08-05T10:23:22.183Z,39.99
2022-08-05T10:25:56.954Z,38.74
2022-08-05T10:28:30.328Z,37.94
2022-08-05T10:32:54.149Z,36.91
2022-08-05T10:33:52.423Z,37.13
2022-08-05T10:36:26.281Z,37.22
2022-08-05T10:39:00.226Z,37.83
2022-08-05T10:41:46.742Z,36.73
2022-08-05T10:44:19.366Z,37.71
2022-08-05T10:46:51.075Z,34.88
2022-08-05T10:49:27.068Z,37.57
2022-08-05T10:52:05.296Z,38.28
2022-08-05T10:54:56.914Z,39.62
2022-08-05T10:57:29.566Z,35.54
2022-08-05T11:00:20.087Z,34.34
2022-08-05T11:03:23.573Z,36.09
2022-08-05T11:06:15.734Z,35.59
2022-08-05T11:09:39.152Z,33.74
2022-08-05T11:12:50.762Z,35.95
2022-08-05T11:16:00.687Z,35.85
2022-08-05T11:18:27.017Z,32.87
2022-08-05T11:20:57.648Z,34.43
2022-08-05T11:24:02.655Z,35.33
2022-08-05T11:26:28.172Z,34.20
2022-08-05T11:29:05.161Z,32.69
2022-08-05T11:31:58.122Z,35.64
2022-08-05T11:34:39.464Z,34.73
2022-08-05T11:38:29.218Z,33.02
2022-08-05T11:40:02.873Z,33.68
2022-08-05T11:42:37.963Z,32.32
2022-08-05T11:45:14.358Z,33.45
2022-08-05T11:47:54.711Z,29.88
2022-08-05T11:50:22.935Z,29.38
2022-08-05T11:52:54.386Z,28.33
2022-08-05T11:55:32.332Z,31.58
2022-08-05T11:58:09.555Z,30.58
2022-08-05T12:00:44.452Z,32.20
2022-08-05T12:03:28.586Z,29.15
2022-08-05T12:06:06.083Z,29.78
2022-08-05T12:08:51.208Z,29.18
2022-08-05T12:11:21.478Z,28.46
2022-08-05T12:13:58.576Z,29.63
2022-08-05T12:16:30.738Z,28.70
2022-08-05T12:18:58.777Z,30.93
2022-08-05T12:21:30.037Z,30.92
2022-08-05T12:24:04.514Z,31.96
2022-08-05T12:26:35.365Z,33.00
2022-08-05T12:29:04.389Z,31.99
2022-08-05T12:31:46.093Z,31.02
2022-08-05T12:34:21.237Z,28.69
2022-08-05T12:36:53.313Z,29.40
2022-08-05T12:39:21.998Z,27.96
2022-08-05T12:41:51.337Z,24.50
2022-08-05T12:44:33.110Z,25.42
2022-08-05T12:47:03.849Z,26.96
2022-08-05T12:50:03.113Z,27.42
2022-08-05T12:52:39.624Z,27.16
2022-08-05T12:55:23.650Z,27.61
2022-08-05T12:58:48.594Z,26.37
2022-08-05T13:02:03.141Z,24.63
2022-08-05T13:03:42.170Z,25.30
2022-08-05T13:06:15.853Z,28.24
2022-08-05T13:08:51.398Z,26.38
2022-08-05T13:11:57.945Z,25.22
2022-08-05T13:14:14.848Z,25.78
2022-08-05T13:16:47.403Z,28.05
2022-08-05T13:19:16.583Z,25.51
2022-08-05T13:21:55.909Z,27.60
2022-08-05T13:24:27.732Z,29.16
2022-08-05T13:27:17.202Z,28.61
2022-08-05T13:30:31.612Z,26.29
2022-08-05T13:32:42.275Z,27.00
2022-08-05T13:35:22.235Z,29.65
2022-08-05T13:38:05.023Z,31.43
2022-08-05T13:40:51.737Z,33.83
2022-08-05T13:43:22.189Z,33.05
2022-08-05T13:45:50.786Z,33.44
2022-08-05T13:48:58.484Z,32.72
2022-08-05T13:51:09.526Z,34.82
2022-08-05T13:53:47.540Z,35.13
2022-08-05T13:56:18.985Z,36.70
2022-08-05T13:58:52.743Z,34.37
2022-08-05T14:01:27.493Z,38.74
2022-08-05T14:04:26.951Z,35.66
2022-08-05T14:06:58.629Z,41.03
2022-08-05T14:09:46.096Z,37.91
2022-08-05T14:12:18.143Z,38.41
2022-08-05T14:15:00.173Z,37.40
2022-08-05T14:17:28.264Z,32.79
2022-08-05T14:20:00.883Z,31.58
2022-08-05T14:22:34.289Z,32.56
2022-08-05T14:25:02.666Z,28.57
2022-08-05T14:27:34.279Z,27.82
2022-08-05T14:30:02.086Z,28.04
2022-08-05T14:32:32.410Z,27.66
2022-08-05T14:35:01.212Z,29.63
2022-08-05T14:37:44.834Z,30.05
2022-08-05T14:40:18.004Z,29.74
2022-08-05T14:42:45.750Z,30.02
2022-08-05T14:45:13.466Z,28.49
2022-08-05T14:48:03.417Z,25.55
2022-08-05T14:50:30.710Z,29.08
2022-08-05T14:52:59.566Z,28.69
2022-08-05T14:55:39.505Z,29.32
2022-08-05T14:58:11.553Z,28.21
2022-08-05T15:00:58.198Z,30.46
2022-08-05T15:03:26.853Z,27.92
2022-08-05T15:06:06.867Z,29.19
2022-08-05T15:08:59.363Z,27.19
2022-08-05T15:11:52.407Z,27.31
2022-08-05T15:14:33.471Z,28.73
2022-08-05T15:17:00.645Z,27.95
2022-08-05T15:19:28.483Z,28.18
2022-08-05T15:22:00.312Z,31.90
2022-08-05T15:24:29.036Z,30.66
2022-08-05T15:26:58.178Z,32.25
2022-08-05T15:29:30.311Z,38.41
2022-08-05T15:32:03.248Z,36.10
2022-08-05T15:34:34.078Z,39.43
2022-08-05T15:37:06.210Z,39.05
2022-08-05T15:41:04.708Z,42.52
2022-08-05T15:42:53.462Z,41.72
2022-08-05T15:45:12.324Z,40.17
2022-08-05T15:47:40.503Z,40.90
2022-08-05T15:50:09.622Z,41.12
2022-08-05T15:52:53.182Z,44.69
2022-08-05T15:55:24.997Z,39.19
2022-08-05T15:58:16.827Z,38.75
2022-08-05T16:00:50.273Z,37.26
2022-08-05T16:03:24.788Z,37.08
2022-08-05T16:05:52.867Z,36.36
2022-08-05T16:08:24.010Z,36.41
2022-08-05T16:10:58.706Z,37.75
2022-08-05T16:13:34.109Z,37.05
2022-08-05T16:16:03.377Z,40.33
2022-08-05T16:18:32.626Z,38.57
2022-08-05T16:21:04.359Z,39.99
2022-08-05T16:23:53.284Z,38.72
2022-08-05T16:26:26.471Z,38.19
2022-08-05T16:28:56.713Z,37.76
2022-08-05T16:31:24.728Z,38.44
2022-08-05T16:33:53.697Z,39.19
2022-08-05T16:36:24.020Z,41.74
2022-08-05T16:38:55.619Z,43.44
2022-08-05T16:42:15.014Z,46.78
2022-08-05T16:44:15.415Z,49.43
2022-08-05T16:46:55.969Z,53.17
2022-08-05T16:49:26.349Z,47.46
2022-08-05T16:51:56.847Z,52.20
2022-08-05T16:54:30.360Z,55.44
2022-08-05T16:57:00.780Z,53.97
2022-08-05T16:59:30.953Z,52.24
2022-08-05T17:01:59.480Z,48.94
2022-08-05T17:04:29.110Z,57.13
2022-08-05T17:07:00.882Z,53.08
2022-08-05T17:09:30.260Z,81.58
2022-08-05T17:11:59.155Z,100.00
2022-08-05T17:14:34.142Z,100.00
2022-08-05T17:17:09.451Z,100.00
2022-08-05T17:19:45.694Z,100.00
2022-08-05T17:22:24.477Z,100.00
2022-08-05T17:24:57.250Z,100.00
2022-08-05T17:27:27.228Z,100.00
2022-08-05T17:30:02.506Z,100.00
2022-08-05T17:32:33.843Z,100.00
2022-08-05T17:35:02.556Z,100.00
2022-08-05T17:37:40.209Z,100.00
2022-08-05T17:40:12.558Z,100.00
2022-08-05T17:42:41.766Z,100.00
2022-08-05T17:45:38.975Z,100.00
2022-08-05T17:48:08.019Z,100.00
2022-08-05T17:50:35.955Z,100.00
2022-08-05T17:53:05.143Z,100.00
2022-08-05T17:55:37.825Z,100.00
2022-08-05T17:58:12.850Z,100.00
2022-08-05T18:00:45.366Z,100.00
2022-08-05T18:06:11.671Z,100.00
2022-08-05T18:08:44.699Z,100.00
2022-08-05T18:11:24.234Z,100.00
2022-08-05T18:14:03.310Z,100.00
2022-08-05T18:16:33.608Z,100.00
2022-08-05T18:19:01.374Z,100.00
2022-08-05T18:22:09.438Z,100.00
2022-08-05T18:24:16.905Z,100.00
2022-08-05T18:26:44.686Z,100.00
2022-08-05T18:29:16.733Z,100.00
2022-08-05T18:31:46.171Z,100.00
2022-08-05T18:34:17.488Z,100.00
2022-08-05T18:36:49.552Z,100.00
2022-08-05T18:39:42.423Z,100.00
2022-08-05T18:42:10.946Z,100.00
2022-08-05T18:44:49.384Z,100.00
2022-08-05T18:47:26.734Z,100.00
2022-08-05T18:50:13.298Z,100.00
2022-08-05T18:52:50.455Z,100.00
2022-08-05T18:55:20.267Z,100.00
2022-08-05T18:57:53.492Z,100.00
2022-08-05T19:00:29.098Z,100.00
2022-08-05T19:03:04.185Z,100.00
2022-08-05T19:06:12.178Z,100.00
2022-08-05T19:08:30.826Z,100.00
2022-08-05T19:11:04.614Z,100.00
2022-08-05T19:13:35.977Z,100.00
2022-08-05T19:16:05.767Z,100.00
2022-08-05T19:18:56.760Z,100.00
2022-08-05T19:21:27.676Z,100.00
2022-08-05T19:24:07.299Z,100.00
2022-08-05T19:26:43.800Z,100.00
2022-08-05T19:29:24.289Z,100.00
2022-08-05T19:32:03.419Z,100.00
2022-08-05T19:34:33.658Z,100.00
2022-08-05T19:37:01.460Z,100.00
2022-08-05T19:39:30.497Z,100.00
2022-08-05T19:42:08.102Z,100.00
2022-08-05T19:44:44.869Z,100.00
2022-08-05T19:47:15.278Z,100.00
2022-08-05T19:49:46.098Z,100.00
2022-08-05T19:52:40.556Z,100.00
2022-08-05T19:55:06.863Z,100.00
2022-08-05T19:57:47.295Z,100.00
2022-08-05T20:00:23.511Z,100.00
2022-08-05T20:02:52.271Z,100.00
2022-08-05T20:05:24.529Z,100.00
2022-08-05T20:07:57.714Z,100.00
2022-08-05T20:10:27.132Z,100.00
2022-08-05T20:12:55.109Z,100.00
2022-08-05T20:15:52.253Z,100.00
2022-08-05T20:18:32.606Z,100.00
2022-08-05T20:21:00.412Z,100.00
2022-08-05T20:23:39.654Z,100.00
2022-08-05T20:26:17.291Z,100.00
2022-08-05T20:28:47.943Z,100.00
2022-08-05T20:31:16.638Z,100.00
2022-08-05T20:33:45.343Z,100.00
2022-08-05T20:36:16.370Z,100.00
2022-08-05T20:38:53.274Z,100.00
2022-08-05T20:41:26.667Z,100.00
2022-08-05T20:43:58.744Z,100.00
2022-08-05T20:46:29.946Z,100.00
2022-08-05T20:48:57.934Z,100.00
2022-08-05T20:51:27.641Z,100.00
2022-08-05T20:53:56.648Z,100.00
2022-08-05T20:56:29.787Z,100.00
2022-08-05T20:59:04.137Z,100.00
2022-08-05T21:01:42.414Z,100.00
2022-08-05T21:04:10.918Z,100.00
2022-08-05T21:06:45.921Z,100.00
2022-08-05T21:09:14.751Z,100.00
2022-08-05T21:12:09.615Z,100.00
2022-08-05T21:14:31.436Z,100.00
2022-08-05T21:17:05.497Z,100.00
2022-08-05T21:19:46.790Z,100.00
2022-08-05T21:22:21.775Z,100.00
2022-08-05T21:24:52.598Z,100.00
2022-08-05T21:27:25.391Z,100.00
2022-08-05T21:29:56.222Z,100.00
2022-08-05T21:32:27.116Z,100.00
2022-08-05T21:35:17.346Z,100.00
2022-08-05T21:37:49.671Z,100.00
2022-08-05T21:40:21.172Z,100.00
2022-08-05T21:42:49.041Z,100.00
2022-08-05T21:45:51.479Z,100.00
2022-08-05T21:48:08.033Z,100.00
2022-08-05T21:50:36.772Z,100.00
2022-08-05T21:53:16.101Z,100.00
2022-08-05T21:56:04.882Z,100.00
2022-08-05T21:58:32.533Z,100.00
2022-08-05T22:01:01.394Z,100.00
2022-08-05T22:03:51.735Z,100.00
2022-08-05T22:06:23.019Z,100.00
2022-08-05T22:09:15.122Z,100.00
2022-08-05T22:11:43.545Z,100.00
2022-08-05T22:14:34.667Z,100.00
2022-08-05T22:17:06.925Z,100.00
2022-08-05T22:20:01.441Z,100.00
2022-08-05T22:22:27.389Z,100.00
2022-08-05T22:25:21.292Z,100.00
2022-08-05T22:28:08.276Z,100.00
2022-08-05T22:30:43.969Z,100.00
2022-08-05T22:33:57.348Z,100.00
2022-08-05T22:36:14.246Z,100.00
2022-08-05T22:38:42.844Z,100.00
2022-08-05T22:41:12.199Z,100.00
2022-08-05T22:43:42.829Z,100.00
2022-08-05T22:46:13.615Z,100.00
2022-08-05T22:48:51.254Z,100.00
2022-08-05T22:51:22.652Z,100.00
2022-08-05T22:53:51.950Z,100.00
2022-08-05T22:56:30.742Z,100.00
2022-08-05T22:59:00.072Z,100.00
2022-08-05T23:01:50.866Z,100.00
2022-08-05T23:04:21.188Z,100.00
2022-08-05T23:06:48.891Z,100.00
2022-08-05T23:09:52.590Z,100.00
2022-08-05T23:12:06.616Z,100.00
2022-08-05T23:14:34.583Z,100.00
2022-08-05T23:17:24.615Z,100.00
2022-08-05T23:20:02.371Z,100.00
2022-08-05T23:22:30.884Z,100.00
2022-08-05T23:24:58.889Z,100.00
2022-08-05T23:27:42.280Z,100.00
2022-08-05T23:30:16.796Z,100.00
2022-08-05T23:32:45.129Z,100.00
2022-08-05T23:35:13.207Z,100.00
2022-08-05T23:37:41.333Z,100.00
2022-08-05T23:40:11.894Z,100.00
2022-08-05T23:42:41.049Z,100.00
2022-08-05T23:45:15.996Z,100.00
2022-08-05T23:47:48.043Z,100.00
2022-08-05T23:50:20.293Z,100.00
2022-08-05T23:52:49.828Z,100.00
2022-08-05T23:55:19.166Z,100.00
2022-08-05T23:57:48.907Z,100.00
